DTTX

Sfax Thyna International Airport

Sfax, Tunisia
METAR DTTX 180800Z 30009KT 9999 FEW020 10/01 Q1025 NOSIG
Observed Flight Rules
Dec-18 @ 08:00 UTC (57 minutes ago) Visual Flight Rules
Wind Visibility Clouds
300° at 9 knots 10,000+ meters
  • Few at 2,000' AGL
Temperatures Readings
Current 10°C / 50°F
Dewpoint 1°C / 34°F
Humidity 54%
Altimeter 30.27" Hg
Pressure 1025 hPa
Elevation 23
METAR DTTX 180800Z 30009KT 9999 FEW020 10/01 Q1025 NOSIG
Observed Flight Rules
Dec-18 @ 08:00 UTC
(57 minutes ago)
VFR
Wind Visibility
300° at 9 knots 10,000+ meters
Clouds
  • Few at 2,000' AGL
Temperature Dewpoint
10°C / 50°F 1°C / 34°F
Humidity Altimeter Pressure
54% 30.27" Hg 1025 hPa